Tinian, Northern Mariana Islands
Current Conditions -  °F | °C
As of 11:50 AM on Friday 21 Nov 2014 (Local Time) from PGWT Reporting Station
Scattered Clouds Scattered Clouds  
Wind Chill: 84°   Ceiling: Unl
Heat Index: 92°   Visibility: 7mi
Dew Point: 75°   Wind: 16mph
Humidity: 74%   Direction: 60°ENE
Pressure: 29.9"   Gusts: NA
Location:  14.96°N, 145.63°E
Report Text: PGWT 210150Z 06014KT 7SM SCT016 29/24 A2990
Loading
Personal Weather Stations






























Interactive Weather Map New forecast layout! Learn more

10-Day Weather Forecast

Advertisements
Track Severe Weather on mobile